createdAt,value
2018-10-12T00:01:19.392Z,19.03
2018-10-12T00:04:23.762Z,26.83
2018-10-12T00:07:28.082Z,26.20
2018-10-12T00:10:32.367Z,20.17
2018-10-12T00:13:36.648Z,20.57
2018-10-12T00:16:40.954Z,20.90
2018-10-12T00:19:45.201Z,23.20
2018-10-12T00:26:02.201Z,21.37
2018-10-12T00:29:06.615Z,18.90
2018-10-12T00:32:10.875Z,22.53
2018-10-12T00:35:15.207Z,20.43
2018-10-12T00:38:19.515Z,22.60
2018-10-12T00:41:23.804Z,19.97
2018-10-12T00:44:28.108Z,23.90
2018-10-12T00:47:32.371Z,20.80
2018-10-12T00:50:36.666Z,20.10
2018-10-12T00:53:40.970Z,20.50
2018-10-12T00:56:45.248Z,21.63
2018-10-12T00:59:49.530Z,21.30
2018-10-12T01:02:53.804Z,19.83
2018-10-12T01:05:58.072Z,20.37
2018-10-12T01:09:02.336Z,21.80
2018-10-12T01:12:31.520Z,22.07
2018-10-12T01:15:35.776Z,21.33
2018-10-12T01:18:40.032Z,25.83
2018-10-12T01:21:44.295Z,25.37
2018-10-12T01:24:48.574Z,22.73
2018-10-12T01:27:52.842Z,21.20
2018-10-12T01:30:57.156Z,21.40
2018-10-12T01:34:01.498Z,21.90
2018-10-12T01:37:05.768Z,20.73
2018-10-12T01:40:10.034Z,21.00
2018-10-12T01:43:14.345Z,21.03
2018-10-12T01:46:18.660Z,22.10
2018-10-12T01:49:22.892Z,21.30
2018-10-12T01:52:27.187Z,21.77
2018-10-12T01:55:31.467Z,21.40
2018-10-12T01:58:36.238Z,27.47
2018-10-12T02:01:40.510Z,27.43
2018-10-12T02:04:44.792Z,24.53
2018-10-12T02:07:49.053Z,24.60
2018-10-12T02:10:53.340Z,23.13
2018-10-12T02:13:57.627Z,21.07
2018-10-12T02:17:01.924Z,20.77
2018-10-12T02:20:06.281Z,21.37
2018-10-12T02:23:10.552Z,20.00
2018-10-12T02:26:14.798Z,21.47
2018-10-12T02:29:19.110Z,20.57
2018-10-12T02:32:23.371Z,22.30
2018-10-12T02:35:27.670Z,21.73
2018-10-12T02:38:31.976Z,23.83
2018-10-12T02:41:36.254Z,30.03
2018-10-12T02:44:40.501Z,30.17
2018-10-12T02:47:44.816Z,26.17
2018-10-12T02:50:49.105Z,25.20
2018-10-12T02:53:53.381Z,24.57
2018-10-12T02:56:57.681Z,24.17
2018-10-12T03:00:02.038Z,22.90
2018-10-12T03:03:06.334Z,21.33
2018-10-12T03:06:10.672Z,21.97
2018-10-12T03:09:14.976Z,22.70
2018-10-12T03:12:19.270Z,20.90
2018-10-12T03:15:23.529Z,22.83
2018-10-12T03:18:27.829Z,21.93
2018-10-12T03:21:32.438Z,22.33
2018-10-12T03:24:36.740Z,22.70
2018-10-12T03:27:58.472Z,23.60
2018-10-12T03:31:03.368Z,20.93
2018-10-12T03:34:07.641Z,21.07
2018-10-12T03:37:11.986Z,21.53
2018-10-12T03:40:16.501Z,21.30
2018-10-12T03:43:20.737Z,23.00
2018-10-12T03:46:25.027Z,21.30
2018-10-12T03:49:29.315Z,23.27
2018-10-12T03:52:33.639Z,21.73
2018-10-12T03:55:37.909Z,20.40
2018-10-12T03:58:42.215Z,20.70
2018-10-12T04:01:46.474Z,27.77
2018-10-12T04:04:50.768Z,32.87
2018-10-12T04:07:55.039Z,23.13
2018-10-12T04:10:59.341Z,20.87
2018-10-12T04:14:03.606Z,20.83
2018-10-12T04:17:07.888Z,21.87
2018-10-12T04:20:12.292Z,26.87
2018-10-12T04:23:16.614Z,25.80
2018-10-12T04:26:20.889Z,24.80
2018-10-12T04:29:25.190Z,26.17
2018-10-12T04:32:29.429Z,23.90
2018-10-12T04:35:33.745Z,22.10
2018-10-12T04:38:56.677Z,21.77
2018-10-12T04:42:00.997Z,23.27
2018-10-12T04:45:05.280Z,20.83
2018-10-12T04:48:09.604Z,21.40
2018-10-12T04:51:17.878Z,22.23
2018-10-12T04:54:22.468Z,40.70
2018-10-12T04:57:26.797Z,24.30
2018-10-12T05:00:31.136Z,21.93
2018-10-12T05:03:35.663Z,21.47
2018-10-12T05:06:39.997Z,21.73
2018-10-12T05:09:44.245Z,21.07
2018-10-12T05:12:48.569Z,26.07
2018-10-12T05:15:52.848Z,25.97
2018-10-12T05:18:57.123Z,26.03
2018-10-12T05:22:01.384Z,32.00
2018-10-12T05:25:05.656Z,25.67
2018-10-12T05:28:09.920Z,28.20
2018-10-12T05:31:14.248Z,27.43
2018-10-12T05:34:18.533Z,29.30
2018-10-12T05:37:22.852Z,25.83
2018-10-12T05:40:27.125Z,24.03
2018-10-12T05:43:31.648Z,25.60
2018-10-12T05:46:35.771Z,25.73
2018-10-12T05:49:57.206Z,23.90
2018-10-12T05:53:01.542Z,23.07
2018-10-12T05:56:06.708Z,22.70
2018-10-12T05:59:11.490Z,23.27
2018-10-12T06:02:15.717Z,22.77
2018-10-12T06:05:20.017Z,26.13
2018-10-12T06:08:24.276Z,26.57
2018-10-12T06:11:28.598Z,23.43
2018-10-12T06:14:32.880Z,24.80
2018-10-12T06:17:37.151Z,24.90
2018-10-12T06:20:41.400Z,25.43
2018-10-12T06:23:45.696Z,24.37
2018-10-12T06:26:49.969Z,23.70
2018-10-12T06:29:54.237Z,24.87
2018-10-12T06:32:58.659Z,23.37
2018-10-12T06:36:02.945Z,22.13
2018-10-12T06:39:07.298Z,22.60
2018-10-12T06:42:11.578Z,23.20
2018-10-12T06:45:15.866Z,23.13
2018-10-12T06:48:20.153Z,22.10
2018-10-12T06:51:24.540Z,27.73
2018-10-12T06:54:28.872Z,24.23
2018-10-12T06:57:33.130Z,24.80
2018-10-12T07:00:37.476Z,23.93
2018-10-12T07:03:41.919Z,24.53
2018-10-12T07:06:46.217Z,24.50
2018-10-12T07:09:50.489Z,24.17
2018-10-12T07:12:54.789Z,24.27
2018-10-12T07:15:59.041Z,24.87
2018-10-12T07:19:03.312Z,24.97
2018-10-12T07:22:07.601Z,24.07
2018-10-12T07:25:11.869Z,22.63
2018-10-12T07:28:16.186Z,25.17
2018-10-12T07:31:20.489Z,22.87
2018-10-12T07:34:24.746Z,23.47
2018-10-12T07:37:29.056Z,23.37
2018-10-12T07:40:33.309Z,22.60
2018-10-12T07:43:37.677Z,22.27
2018-10-12T07:46:41.965Z,21.60
2018-10-12T07:49:46.225Z,22.97
2018-10-12T07:52:50.549Z,23.10
2018-10-12T07:55:54.815Z,22.53
2018-10-12T07:58:59.118Z,21.33
2018-10-12T08:02:03.393Z,21.87
2018-10-12T08:05:07.758Z,20.30
2018-10-12T08:08:12.044Z,20.87
2018-10-12T08:11:16.384Z,22.00
2018-10-12T08:14:20.844Z,22.63
2018-10-12T08:17:24.906Z,22.57
2018-10-12T08:20:29.257Z,20.93
2018-10-12T08:23:33.506Z,22.07
2018-10-12T08:26:37.856Z,20.77
2018-10-12T08:29:42.141Z,20.70
2018-10-12T08:32:46.427Z,21.23
2018-10-12T08:35:50.750Z,21.83
2018-10-12T08:38:55.044Z,20.50
2018-10-12T08:41:59.453Z,20.50
2018-10-12T08:45:03.612Z,20.63
2018-10-12T08:48:08.028Z,18.97
2018-10-12T08:51:12.296Z,21.37
2018-10-12T08:54:16.580Z,21.63
2018-10-12T08:57:20.849Z,21.40
2018-10-12T09:00:25.678Z,21.03
2018-10-12T09:03:29.975Z,21.90
2018-10-12T09:06:34.253Z,20.43
2018-10-12T09:09:38.579Z,21.87
2018-10-12T09:12:42.825Z,21.87
2018-10-12T09:15:47.108Z,21.00
2018-10-12T09:18:51.380Z,23.73
2018-10-12T09:21:55.737Z,22.17
2018-10-12T09:25:00.027Z,22.00
2018-10-12T09:28:04.321Z,22.20
2018-10-12T09:31:08.596Z,19.70
2018-10-12T09:34:12.917Z,20.40
2018-10-12T09:37:17.202Z,19.90
2018-10-12T09:40:21.471Z,17.87
2018-10-12T09:43:25.822Z,17.93
2018-10-12T09:46:30.094Z,18.53
2018-10-12T09:49:34.389Z,17.40
2018-10-12T09:52:38.681Z,18.03
2018-10-12T09:55:43.024Z,17.57
2018-10-12T09:58:47.272Z,17.53
2018-10-12T10:01:56.851Z,17.70
2018-10-12T10:05:06.505Z,19.90
2018-10-12T10:08:10.891Z,18.23
2018-10-12T10:11:15.136Z,17.67
2018-10-12T10:14:19.468Z,18.67
2018-10-12T10:17:23.800Z,17.30
2018-10-12T10:20:28.076Z,15.47
2018-10-12T10:23:32.373Z,14.13
2018-10-12T10:26:36.665Z,15.23
2018-10-12T10:29:40.995Z,16.10
2018-10-12T10:32:45.268Z,16.60
2018-10-12T10:35:49.546Z,14.03
2018-10-12T10:38:53.880Z,14.77
2018-10-12T10:41:58.171Z,15.40
2018-10-12T10:45:02.443Z,14.57
2018-10-12T10:48:06.786Z,13.03
2018-10-12T10:51:11.056Z,14.93
2018-10-12T10:54:15.410Z,13.90
2018-10-12T10:57:19.713Z,12.50
2018-10-12T11:00:24.261Z,13.43
2018-10-12T11:03:28.534Z,13.60
2018-10-12T11:06:32.826Z,13.17
2018-10-12T11:09:37.080Z,14.07
2018-10-12T11:12:41.804Z,15.33
2018-10-12T11:15:46.127Z,13.23
2018-10-12T11:18:50.408Z,13.07
2018-10-12T11:21:54.747Z,14.23
2018-10-12T11:24:59.125Z,13.17
2018-10-12T11:28:03.429Z,11.30
2018-10-12T11:31:08.511Z,11.53
2018-10-12T11:34:12.780Z,11.80
2018-10-12T11:37:17.103Z,11.73
2018-10-12T11:40:21.388Z,13.03
2018-10-12T11:43:35.681Z,12.97
2018-10-12T11:46:40.025Z,11.53
2018-10-12T11:49:44.361Z,11.90
2018-10-12T11:52:48.681Z,12.73
2018-10-12T11:55:53.002Z,11.23
2018-10-12T11:58:57.316Z,9.53
2018-10-12T12:02:01.632Z,11.73
2018-10-12T12:05:06.092Z,9.13
2018-10-12T12:08:10.993Z,8.03
2018-10-12T12:11:15.284Z,7.43
2018-10-12T12:14:19.604Z,7.00
2018-10-12T12:17:23.916Z,7.03
2018-10-12T12:20:28.435Z,5.57
2018-10-12T12:23:32.736Z,6.40
2018-10-12T12:26:37.019Z,5.70
2018-10-12T12:29:41.352Z,6.60
2018-10-12T12:32:45.695Z,6.50
2018-10-12T12:35:50.395Z,6.70
2018-10-12T12:38:54.280Z,5.70
2018-10-12T12:41:58.564Z,6.83
2018-10-12T12:45:02.851Z,5.80
2018-10-12T12:48:07.193Z,5.80
2018-10-12T12:51:12.279Z,6.30
2018-10-12T12:54:16.541Z,5.93
2018-10-12T12:57:20.817Z,5.37
2018-10-12T13:00:25.103Z,5.17
2018-10-12T13:03:29.371Z,4.70
2018-10-12T13:06:33.762Z,5.37
2018-10-12T13:09:37.980Z,5.20
2018-10-12T13:12:42.263Z,5.00
2018-10-12T13:15:46.705Z,4.10
2018-10-12T13:18:50.994Z,4.40
2018-10-12T13:21:55.238Z,3.53
2018-10-12T13:24:59.565Z,4.03
2018-10-12T13:28:03.803Z,4.10
2018-10-12T13:31:08.125Z,4.30
2018-10-12T13:34:12.438Z,4.43
2018-10-12T13:37:16.726Z,4.63
2018-10-12T13:40:21.053Z,4.60
2018-10-12T13:43:25.365Z,4.67
2018-10-12T13:46:29.684Z,4.67
2018-10-12T13:49:33.950Z,5.30
2018-10-12T13:52:38.270Z,5.40
2018-10-12T13:55:42.537Z,5.90
2018-10-12T13:58:46.849Z,6.07
2018-10-12T14:01:51.079Z,5.90
2018-10-12T14:04:55.395Z,6.60
2018-10-12T14:07:59.681Z,6.17
2018-10-12T14:11:04.001Z,6.53
2018-10-12T14:14:08.223Z,7.03
2018-10-12T14:17:12.481Z,7.17
2018-10-12T14:20:16.753Z,6.60
2018-10-12T14:23:20.998Z,7.13
2018-10-12T14:26:25.302Z,7.23
2018-10-12T14:29:29.556Z,6.53
2018-10-12T14:32:33.867Z,7.53
2018-10-12T14:35:38.132Z,7.60
2018-10-12T14:38:42.452Z,7.97
2018-10-12T14:41:46.697Z,7.67
2018-10-12T14:44:51.068Z,7.70
2018-10-12T14:47:55.355Z,7.53
2018-10-12T14:50:59.620Z,7.13
2018-10-12T14:54:03.922Z,7.20
2018-10-12T14:57:13.736Z,7.03
2018-10-12T15:00:18.051Z,7.10
2018-10-12T15:03:22.344Z,7.17
2018-10-12T15:06:26.640Z,7.50
2018-10-12T15:09:30.908Z,7.10
2018-10-12T15:12:35.209Z,9.23
2018-10-12T15:15:39.465Z,8.10
2018-10-12T15:18:43.804Z,9.80
2018-10-12T15:21:48.136Z,10.73
2018-10-12T15:24:52.446Z,10.87
2018-10-12T15:27:56.744Z,9.87
2018-10-12T15:31:01.015Z,9.33
2018-10-12T15:34:05.251Z,8.13
2018-10-12T15:37:09.580Z,9.37
2018-10-12T15:40:13.849Z,9.57
2018-10-12T15:43:18.198Z,9.73
2018-10-12T15:46:22.405Z,8.70
2018-10-12T15:49:26.732Z,9.03
2018-10-12T15:52:31.113Z,11.00
2018-10-12T15:55:35.374Z,10.23
2018-10-12T15:58:39.640Z,8.43
2018-10-12T16:01:43.913Z,8.33
2018-10-12T16:04:48.234Z,12.40
2018-10-12T16:07:52.522Z,9.37
2018-10-12T16:10:56.838Z,9.47
2018-10-12T16:14:01.115Z,7.77
2018-10-12T16:17:05.377Z,7.53
2018-10-12T16:20:09.624Z,6.77
2018-10-12T16:23:13.890Z,8.30
2018-10-12T16:26:22.868Z,7.77
2018-10-12T16:29:27.160Z,7.37
2018-10-12T16:32:31.490Z,7.77
2018-10-12T16:35:35.735Z,7.30
2018-10-12T16:38:40.083Z,8.50
2018-10-12T16:41:44.377Z,7.83
2018-10-12T16:44:48.632Z,10.40
2018-10-12T16:47:52.929Z,13.30
2018-10-12T16:50:57.204Z,14.27
2018-10-12T16:54:01.460Z,45.73
2018-10-12T16:57:05.736Z,8.27
2018-10-12T17:00:10.045Z,7.47
2018-10-12T17:03:14.334Z,12.43
2018-10-12T17:06:18.654Z,7.73
2018-10-12T17:09:22.895Z,7.97
2018-10-12T17:12:27.180Z,9.43
2018-10-12T17:15:31.509Z,7.43
2018-10-12T17:18:35.778Z,6.77
2018-10-12T17:21:40.025Z,7.27
2018-10-12T17:24:44.305Z,7.37
2018-10-12T17:27:48.676Z,7.17
2018-10-12T17:30:52.961Z,7.53
2018-10-12T17:33:57.230Z,7.50
2018-10-12T17:37:01.531Z,6.97
2018-10-12T17:40:06.054Z,8.17
2018-10-12T17:43:10.584Z,8.03
2018-10-12T17:46:15.035Z,8.00
2018-10-12T17:49:19.307Z,7.73
2018-10-12T17:52:23.586Z,7.93
2018-10-12T17:55:27.827Z,8.63
2018-10-12T17:58:32.724Z,7.97
2018-10-12T18:01:36.969Z,8.13
2018-10-12T18:04:41.216Z,8.63
2018-10-12T18:07:45.463Z,8.67
2018-10-12T18:10:49.777Z,8.67
2018-10-12T18:13:54.008Z,9.07
2018-10-12T18:16:58.276Z,8.40
2018-10-12T18:20:02.550Z,8.37
2018-10-12T18:23:06.974Z,8.23
2018-10-12T18:26:11.264Z,7.67
2018-10-12T18:29:15.913Z,8.83
2018-10-12T18:32:20.192Z,9.47
2018-10-12T18:35:24.498Z,9.13
2018-10-12T18:38:28.802Z,8.10
2018-10-12T18:41:33.103Z,8.73
2018-10-12T18:44:37.369Z,8.33
2018-10-12T18:47:41.711Z,8.33
2018-10-12T18:50:45.929Z,9.13
2018-10-12T18:53:50.234Z,8.97
2018-10-12T18:56:54.511Z,8.30
2018-10-12T18:59:58.855Z,9.13
2018-10-12T19:03:03.152Z,9.07
2018-10-12T19:06:07.445Z,8.50
2018-10-12T19:09:11.712Z,8.83
2018-10-12T19:12:16.037Z,8.00
2018-10-12T19:15:20.324Z,10.07
2018-10-12T19:18:24.616Z,8.77
2018-10-12T19:21:28.928Z,10.13
2018-10-12T19:24:33.206Z,9.27
2018-10-12T19:27:37.493Z,8.07
2018-10-12T19:30:41.811Z,8.90
2018-10-12T19:33:46.090Z,8.90
2018-10-12T19:36:50.390Z,8.33
2018-10-12T19:39:54.683Z,8.10
2018-10-12T19:42:59.007Z,9.40
2018-10-12T19:46:03.268Z,7.97
2018-10-12T19:49:07.561Z,8.83
2018-10-12T19:52:11.807Z,9.93
2018-10-12T19:55:16.133Z,10.97
2018-10-12T19:58:20.445Z,24.90
2018-10-12T20:01:24.758Z,48.23
2018-10-12T20:04:29.053Z,12.90
2018-10-12T20:07:33.345Z,9.73
2018-10-12T20:10:37.672Z,9.97
2018-10-12T20:13:41.926Z,9.47
2018-10-12T20:16:46.248Z,12.13
2018-10-12T20:19:50.512Z,9.30
2018-10-12T20:22:54.829Z,9.13
2018-10-12T20:25:59.091Z,8.37
2018-10-12T20:29:03.341Z,12.30
2018-10-12T20:32:08.110Z,28.13
2018-10-12T20:35:12.372Z,37.60
2018-10-12T20:38:17.181Z,40.80
2018-10-12T20:41:21.832Z,26.30
2018-10-12T20:44:26.151Z,17.00
2018-10-12T20:47:31.508Z,11.83
2018-10-12T20:50:36.435Z,8.17
2018-10-12T20:53:41.197Z,9.27
2018-10-12T20:56:45.474Z,8.10
2018-10-12T20:59:50.339Z,8.03
2018-10-12T21:02:54.923Z,7.93
2018-10-12T21:05:59.788Z,7.77
2018-10-12T21:09:06.229Z,8.03
2018-10-12T21:12:10.905Z,7.40
2018-10-12T21:15:15.233Z,8.03
2018-10-12T21:18:19.799Z,7.57
2018-10-12T21:21:24.332Z,7.83
2018-10-12T21:24:28.945Z,8.10
2018-10-12T21:27:33.580Z,8.10
2018-10-12T21:30:38.459Z,7.83
2018-10-12T21:33:43.569Z,8.50
2018-10-12T21:36:48.268Z,8.43
2018-10-12T21:39:52.557Z,7.87
2018-10-12T21:42:56.875Z,7.67
2018-10-12T21:46:01.142Z,9.53
2018-10-12T21:49:05.426Z,7.77
2018-10-12T21:52:10.181Z,8.27
2018-10-12T21:55:14.466Z,8.77
2018-10-12T21:58:18.722Z,8.97
2018-10-12T22:01:23.025Z,9.23
2018-10-12T22:04:27.262Z,9.23
2018-10-12T22:07:31.551Z,8.70
2018-10-12T22:10:35.826Z,8.97
2018-10-12T22:13:40.112Z,9.40
2018-10-12T22:16:44.389Z,8.70
2018-10-12T22:19:48.913Z,8.47
2018-10-12T22:22:53.284Z,8.43
2018-10-12T22:25:57.638Z,9.03
2018-10-12T22:29:01.859Z,8.93
2018-10-12T22:32:06.197Z,8.37
2018-10-12T22:35:10.466Z,9.07
2018-10-12T22:38:14.741Z,9.70
2018-10-12T22:41:19.015Z,9.57
2018-10-12T22:44:23.289Z,8.53
2018-10-12T22:47:27.585Z,9.13
2018-10-12T22:50:31.889Z,9.57
2018-10-12T22:53:36.142Z,9.33
2018-10-12T22:56:40.438Z,8.67
2018-10-12T22:59:44.718Z,9.80
2018-10-12T23:02:49.020Z,10.43
2018-10-12T23:05:53.272Z,8.83
2018-10-12T23:08:57.581Z,9.57
2018-10-12T23:12:01.873Z,9.60
2018-10-12T23:15:06.157Z,9.43
2018-10-12T23:18:10.429Z,9.80
2018-10-12T23:21:14.698Z,9.47
2018-10-12T23:24:18.992Z,10.43
2018-10-12T23:27:23.261Z,10.37
2018-10-12T23:30:27.575Z,10.57
2018-10-12T23:33:49.110Z,9.60
2018-10-12T23:36:53.391Z,9.73
2018-10-12T23:39:57.672Z,9.80
2018-10-12T23:43:01.967Z,9.80
2018-10-12T23:46:06.226Z,10.43
2018-10-12T23:49:10.476Z,10.60
2018-10-12T23:52:14.714Z,9.87
2018-10-12T23:55:18.987Z,9.70
2018-10-12T23:58:23.279Z,10.50
